Hamden, CT

7:06 AM EST on January 21, 2017 (GMT -0500)
Benham Hill Area | | Change Station
Active Advisory: Storm Watch

Elev 102 ft 41.37 °N, 72.94 °W | Updated 2 seconds ago

Overcast
Overcast
41.2 °F
Feels Like 41 °F
N
0.0
Wind Variable Wind from SSW
Gusts 0.0 mph

Today
High -- | Low -- °F
--% Chance of Precip.
Yesterday
High -- | Low -- °F
Precip. -- in
Pressure 29.88 in
Visibility 0.8 miles
Clouds Overcast 300 ft
Windchill 41 °F
Dew Point 39 °F
Humidity 93%
Rainfall 0.00 in
Snow Depth Not available.
7:12 AM 4:54 PM
Waning Crescent, 35% visible
SPECI KHVN 211159Z 00000KT 3/4SM R02/P6000FT BR OVC003 04/04 A2988 RMK AO2 T00440039
Pressure 29.88 in
Visibility 0.8 miles
Clouds Overcast 300 ft
Windchill 41 °F
Dew Point 39 °F
Humidity 93%
Rainfall 0.00 in
Snow Depth Not available.
7:12 AM 4:54 PM
Waning Crescent, 35% visible
SPECI KHVN 211159Z 00000KT 3/4SM R02/P6000FT BR OVC003 04/04 A2988 RMK AO2 T00440039

Get Your Daily Forecast Email!

Thanks for signing up!

Be on the lookout for a verification email in your inbox.

You'll start receiving the daily forecast at 8 AM.

×

10-Day Weather Forecast

Almanac

Astronomy

Jan. 21, 2017 Rise Set
Actual Time
Civil Twilight
Nautical Twilight
Astronomical Twilight
Moon
Length of Visible Light
Length of Day
Tomorrow will be .
, % of the Moon is Illuminated

Today's Extremes

State Highs State Lows

Community

WunderPhotos

Upload Photos

1,962,540 photos uploaded!

WunderBlog® & News

Nearby

Air Quality

  Air Quality AQ Index Pollutant
Not available.

Snow Depth

Station Depth Elevation

Earthquake Activity

City Distance Mag. Time & Date
Minimum magnitude displayed is 2.5.

Coastal Water Temperatures

Place Temperature

Stations

Nearby Weather Stations

Station Location Temp. Windchill Dew Point Humidity Wind Precip. Elev Updated Type
                   

Watches & Warnings

Storm Watch
Issued: 5:22 AM EST Jan. 21, 2017 – National Weather Service

... Storm watch remains in effect from late Sunday night through
late Monday night...

* winds and seas... east winds 25 to 35 kt with gusts up to 50 kt.
Seas 6 to 9 feet... and as high as 9 to 12 feet east of Orient
Point.

Precautionary/preparedness actions...

A storm watch is issued when the risk of storm force winds of
48 to 63 kt has significantly increased... but the specific timing
and/or location is still uncertain. It is intended to provide
additional lead time for mariners who may wish to consider
altering their plans.